Gurupa, Brazil
Current Conditions -  °F | °C
As of 8:00 AM on Wednesday 26 Nov 2014 (Local Time) from SBMQ Reporting Station
Few Clouds Few Clouds  
Wind Chill: 82°   Ceiling: Unl
Heat Index: 89°   Visibility: 6mi
Dew Point: 75°   Wind: 6mph
Humidity: 79%   Direction: 50°NE
Pressure: 29.83"   Gusts: NA
Location:  1.4°S, 51.66°W
Report Text: SBMQ 261100Z 05005KT 9999 FEW017 28/24 Q1010
Loading
Personal Weather Stations






























Interactive Weather Map New forecast layout! Learn more

10-Day Weather Forecast

Advertisements
Track Severe Weather on mobile